createdAt,value
2023-10-13T00:02:04.448Z,97574.91
2023-10-13T00:04:36.834Z,97573.31
2023-10-13T00:07:05.808Z,97571.34
2023-10-13T00:09:33.892Z,97568.52
2023-10-13T00:12:01.924Z,97568.39
2023-10-13T00:14:36.293Z,97567.60
2023-10-13T00:17:06.681Z,97564.30
2023-10-13T00:19:48.110Z,97555.10
2023-10-13T00:22:17.678Z,97558.38
2023-10-13T00:24:49.352Z,97557.80
2023-10-13T00:27:28.898Z,97557.27
2023-10-13T00:30:23.636Z,97556.33
2023-10-13T00:32:57.761Z,97560.14
2023-10-13T00:35:30.268Z,97560.12
2023-10-13T00:38:04.959Z,97565.73
2023-10-13T00:40:33.916Z,97568.11
2023-10-13T00:43:21.331Z,97562.18
2023-10-13T00:45:59.342Z,97560.60
2023-10-13T00:48:35.895Z,97564.54
2023-10-13T00:51:08.381Z,97564.92
2023-10-13T00:53:42.029Z,97562.39
2023-10-13T00:56:28.586Z,97562.23
2023-10-13T00:59:00.514Z,97558.77
2023-10-13T01:01:35.238Z,97565.75
2023-10-13T01:04:04.662Z,97568.83
2023-10-13T01:06:33.292Z,97568.63
2023-10-13T01:09:14.017Z,97573.81
2023-10-13T01:11:53.438Z,97574.52
2023-10-13T01:14:24.997Z,97572.23
2023-10-13T01:16:54.196Z,97572.23
2023-10-13T01:19:29.200Z,97573.94
2023-10-13T01:22:05.199Z,97566.23
2023-10-13T01:24:36.411Z,97568.67
2023-10-13T01:27:21.725Z,97562.99
2023-10-13T01:29:52.987Z,97561.02
2023-10-13T01:32:23.941Z,97561.77
2023-10-13T01:34:56.735Z,97562.53
2023-10-13T01:37:24.894Z,97561.59
2023-10-13T01:39:53.158Z,97567.05
2023-10-13T01:42:23.585Z,97561.20
2023-10-13T01:44:52.556Z,97568.23
2023-10-13T01:47:22.069Z,97568.20
2023-10-13T01:49:51.661Z,97572.61
2023-10-13T01:52:20.469Z,97572.83
2023-10-13T01:54:50.776Z,97571.59
2023-10-13T01:57:19.492Z,97573.64
2023-10-13T01:59:50.010Z,97575.48
2023-10-13T02:02:31.046Z,97572.75
2023-10-13T02:05:02.492Z,97572.20
2023-10-13T02:07:36.251Z,97569.80
2023-10-13T02:10:07.644Z,97566.89
2023-10-13T02:12:56.794Z,97564.58
2023-10-13T02:15:27.731Z,97566.61
2023-10-13T02:17:56.793Z,97564.44
2023-10-13T02:20:25.617Z,97562.13
2023-10-13T02:22:53.621Z,97562.59
2023-10-13T02:25:37.156Z,97570.27
2023-10-13T02:28:15.045Z,97569.49
2023-10-13T02:30:50.139Z,97570.06
2023-10-13T02:33:30.673Z,97566.09
2023-10-13T02:36:00.262Z,97563.43
2023-10-13T02:38:48.501Z,97558.33
2023-10-13T02:41:28.883Z,97552.95
2023-10-13T02:43:57.462Z,97554.30
2023-10-13T02:46:30.063Z,97557.77
2023-10-13T02:49:03.807Z,97557.05
2023-10-13T02:51:36.914Z,97556.73
2023-10-13T02:54:13.030Z,97560.84
2023-10-13T02:57:10.227Z,97553.47
2023-10-13T02:59:41.849Z,97548.36
2023-10-13T03:02:19.760Z,97545.48
2023-10-13T03:05:09.805Z,97552.04
2023-10-13T03:07:38.000Z,97552.62
2023-10-13T03:10:12.805Z,97550.92
2023-10-13T03:12:41.626Z,97549.78
2023-10-13T03:15:16.033Z,97550.20
2023-10-13T03:17:45.596Z,97550.09
2023-10-13T03:20:17.325Z,97546.88
2023-10-13T03:22:48.340Z,97543.93
2023-10-13T03:25:30.787Z,97541.86
2023-10-13T03:28:02.063Z,97546.70
2023-10-13T03:30:36.054Z,97549.13
2023-10-13T03:33:09.486Z,97543.24
2023-10-13T03:35:43.629Z,97534.58
2023-10-13T03:38:20.933Z,97522.69
2023-10-13T03:41:12.061Z,97523.63
2023-10-13T03:44:12.164Z,97525.50
2023-10-13T03:46:42.440Z,97525.66
2023-10-13T03:49:14.237Z,97528.86
2023-10-13T03:51:42.412Z,97527.67
2023-10-13T03:54:10.508Z,97524.31
2023-10-13T03:56:41.791Z,97524.23
2023-10-13T03:59:11.275Z,97525.94
2023-10-13T04:01:45.205Z,97524.86
2023-10-13T04:04:16.024Z,97529.61
2023-10-13T04:06:46.901Z,97530.73
2023-10-13T04:09:30.737Z,97528.28
2023-10-13T04:12:05.463Z,97533.92
2023-10-13T04:14:46.179Z,97533.31
2023-10-13T04:17:17.184Z,97531.02
2023-10-13T04:20:08.402Z,97530.96
2023-10-13T04:22:47.450Z,97536.70
2023-10-13T04:25:38.781Z,97538.46
2023-10-13T04:28:17.660Z,97546.20
2023-10-13T04:30:53.207Z,97548.59
2023-10-13T04:33:33.254Z,97554.19
2023-10-13T04:36:15.653Z,97561.79
2023-10-13T04:38:57.933Z,97558.57
2023-10-13T04:41:33.526Z,97561.75
2023-10-13T04:44:24.598Z,97563.41
2023-10-13T04:46:53.300Z,97574.33
2023-10-13T04:49:30.123Z,97575.02
2023-10-13T04:52:00.434Z,97582.85
2023-10-13T04:54:46.456Z,97592.09
2023-10-13T04:57:24.845Z,97591.25
2023-10-13T05:00:12.399Z,97601.30
2023-10-13T05:02:57.300Z,97604.81
2023-10-13T05:05:43.851Z,97622.23
2023-10-13T05:08:30.696Z,97614.08
2023-10-13T05:11:17.295Z,97617.95
2023-10-13T05:14:03.638Z,97623.31
2023-10-13T05:16:50.135Z,97627.89
2023-10-13T05:19:36.908Z,97627.41
2023-10-13T05:22:23.772Z,97636.67
2023-10-13T05:25:15.271Z,97643.27
2023-10-13T05:28:02.897Z,97646.33
2023-10-13T05:30:51.893Z,97651.33
2023-10-13T05:33:38.164Z,97655.23
2023-10-13T05:36:30.601Z,97656.50
2023-10-13T05:39:17.172Z,97666.23
2023-10-13T05:42:03.673Z,97663.17
2023-10-13T05:44:35.021Z,97662.67
2023-10-13T05:47:23.289Z,97663.94
2023-10-13T05:49:53.942Z,97667.48
2023-10-13T05:52:41.881Z,97672.36
2023-10-13T05:55:28.857Z,97678.00
2023-10-13T05:58:15.698Z,97679.77
2023-10-13T06:01:02.156Z,97679.50
2023-10-13T06:03:49.014Z,97677.45
2023-10-13T06:06:35.666Z,97683.23
2023-10-13T06:09:22.491Z,97685.87
2023-10-13T06:12:09.537Z,97693.04
2023-10-13T06:14:56.454Z,97698.16
2023-10-13T06:17:43.256Z,97703.94
2023-10-13T06:20:29.859Z,97708.33
2023-10-13T06:23:16.517Z,97709.15
2023-10-13T06:26:02.977Z,97710.06
2023-10-13T06:28:43.100Z,97709.86
2023-10-13T06:31:27.598Z,97722.80
2023-10-13T06:33:57.041Z,97734.52
2023-10-13T06:36:26.913Z,97741.97
2023-10-13T06:39:17.624Z,97744.39
2023-10-13T06:41:45.664Z,97757.41
2023-10-13T06:44:17.162Z,97770.55
2023-10-13T06:46:45.808Z,97778.74
2023-10-13T06:49:15.453Z,97780.25
2023-10-13T06:51:44.001Z,97783.52
2023-10-13T06:54:20.649Z,97780.78
2023-10-13T06:56:53.487Z,97779.77
2023-10-13T06:59:27.779Z,97779.95
2023-10-13T07:02:12.535Z,97774.10
2023-10-13T07:04:49.670Z,97769.92
2023-10-13T07:07:17.871Z,97768.62
2023-10-13T07:09:56.422Z,97773.86
2023-10-13T07:12:27.520Z,97780.73
2023-10-13T07:15:04.988Z,97775.41
2023-10-13T07:17:39.247Z,97770.42
2023-10-13T07:20:27.135Z,97771.38
2023-10-13T07:23:04.752Z,97774.45
2023-10-13T07:25:41.325Z,97766.67
2023-10-13T07:28:09.924Z,97768.11
2023-10-13T07:30:50.657Z,97764.58
2023-10-13T07:33:21.364Z,97767.11
2023-10-13T07:36:17.108Z,97764.65
2023-10-13T07:38:58.834Z,97771.39
2023-10-13T07:41:34.961Z,97770.00
2023-10-13T07:44:05.981Z,97764.06
2023-10-13T07:46:36.793Z,97765.86
2023-10-13T07:49:12.032Z,97765.33
2023-10-13T07:51:45.496Z,97761.64
2023-10-13T07:54:23.005Z,97760.74
2023-10-13T07:56:52.005Z,97764.14
2023-10-13T07:59:23.517Z,97762.80
2023-10-13T08:02:13.627Z,97763.25
2023-10-13T08:04:41.878Z,97756.25
2023-10-13T08:07:15.657Z,97745.52
2023-10-13T08:09:52.665Z,97746.55
2023-10-13T08:12:22.827Z,97742.05
2023-10-13T08:15:10.459Z,97737.02
2023-10-13T08:17:38.429Z,97734.79
2023-10-13T08:20:12.851Z,97726.61
2023-10-13T08:22:47.862Z,97724.90
2023-10-13T08:25:25.950Z,97723.32
2023-10-13T08:28:12.243Z,97722.70
2023-10-13T08:30:55.323Z,97721.14
2023-10-13T08:33:27.857Z,97717.44
2023-10-13T08:35:56.354Z,97721.70
2023-10-13T08:38:31.789Z,97724.00
2023-10-13T08:41:19.630Z,97725.40
2023-10-13T08:43:54.829Z,97726.01
2023-10-13T08:46:27.275Z,97728.65
2023-10-13T08:49:15.322Z,97730.55
2023-10-13T08:52:06.044Z,97731.63
2023-10-13T08:54:40.088Z,97733.23
2023-10-13T08:57:28.299Z,97731.35
2023-10-13T08:59:56.736Z,97731.17
2023-10-13T09:03:00.190Z,97729.78
2023-10-13T09:06:02.090Z,97726.27
2023-10-13T09:08:37.293Z,97723.16
2023-10-13T09:11:15.160Z,97723.20
2023-10-13T09:13:46.196Z,97727.58
2023-10-13T09:16:38.271Z,97730.12
2023-10-13T09:19:06.444Z,97732.85
2023-10-13T09:21:41.491Z,97734.88
2023-10-13T09:24:20.012Z,97734.00
2023-10-13T09:26:50.592Z,97735.03
2023-10-13T09:29:20.112Z,97739.64
2023-10-13T09:32:01.085Z,97740.57
2023-10-13T09:34:30.655Z,97743.42
2023-10-13T09:37:00.237Z,97745.96
2023-10-13T09:39:31.414Z,97745.13
2023-10-13T09:42:00.642Z,97748.64
2023-10-13T09:44:31.579Z,97745.05
2023-10-13T09:47:09.572Z,97746.77
2023-10-13T09:49:50.337Z,97744.10
2023-10-13T09:52:21.685Z,97745.10
2023-10-13T09:55:35.935Z,97746.46
2023-10-13T09:58:14.917Z,97745.37
2023-10-13T10:00:59.610Z,97744.42
2023-10-13T10:03:36.801Z,97743.48
2023-10-13T10:06:06.369Z,97739.67
2023-10-13T10:08:36.266Z,97738.10
2023-10-13T10:11:57.893Z,97739.61
2023-10-13T10:14:40.926Z,97735.60
2023-10-13T10:17:10.336Z,97726.95
2023-10-13T10:19:56.633Z,97724.73
2023-10-13T10:22:37.972Z,97722.64
2023-10-13T10:25:26.518Z,97713.05
2023-10-13T10:27:58.540Z,97712.55
2023-10-13T10:30:31.263Z,97711.58
2023-10-13T10:33:02.744Z,97709.67
2023-10-13T10:35:31.111Z,97715.52
2023-10-13T10:38:12.868Z,97715.02
2023-10-13T10:41:05.794Z,97710.29
2023-10-13T10:43:44.385Z,97710.39
2023-10-13T10:46:41.588Z,97705.55
2023-10-13T10:49:09.928Z,97704.27
2023-10-13T10:51:45.926Z,97705.27
2023-10-13T10:54:21.350Z,97705.58
2023-10-13T10:56:55.165Z,97700.95
2023-10-13T10:59:26.416Z,97697.27
2023-10-13T11:01:54.568Z,97694.14
2023-10-13T11:04:29.539Z,97689.60
2023-10-13T11:06:59.322Z,97687.25
2023-10-13T11:09:47.205Z,97689.05
2023-10-13T11:12:16.647Z,97690.71
2023-10-13T11:14:48.948Z,97690.54
2023-10-13T11:17:39.856Z,97688.77
2023-10-13T11:20:17.520Z,97685.81
2023-10-13T11:22:49.285Z,97682.51
2023-10-13T11:25:36.994Z,97680.00
2023-10-13T11:28:19.488Z,97677.20
2023-10-13T11:30:52.854Z,97674.90
2023-10-13T11:33:30.294Z,97669.66
2023-10-13T11:36:02.800Z,97666.31
2023-10-13T11:38:55.646Z,97662.62
2023-10-13T11:41:23.774Z,97661.07
2023-10-13T11:43:53.092Z,97664.16
2023-10-13T11:46:38.951Z,97663.52
2023-10-13T11:49:28.575Z,97662.80
2023-10-13T11:52:09.785Z,97659.40
2023-10-13T11:54:43.060Z,97657.31
2023-10-13T11:57:11.105Z,97658.29
2023-10-13T11:59:45.529Z,97659.94
2023-10-13T12:02:28.926Z,97658.71
2023-10-13T12:04:58.352Z,97654.04
2023-10-13T12:07:45.656Z,97655.70
2023-10-13T12:10:18.172Z,97652.84
2023-10-13T12:12:47.897Z,97649.42
2023-10-13T12:15:27.212Z,97651.51
2023-10-13T12:17:59.591Z,97652.97
2023-10-13T12:20:34.137Z,97653.20
2023-10-13T12:23:16.738Z,97651.47
2023-10-13T12:26:01.765Z,97652.75
2023-10-13T12:28:32.491Z,97652.10
2023-10-13T12:31:09.154Z,97651.48
2023-10-13T12:33:42.167Z,97653.95
2023-10-13T12:36:22.580Z,97655.48
2023-10-13T12:38:50.450Z,97657.69
2023-10-13T12:41:40.088Z,97659.19
2023-10-13T12:44:26.731Z,97658.80
2023-10-13T12:47:13.854Z,97655.91
2023-10-13T12:49:42.237Z,97655.30
2023-10-13T12:52:33.615Z,97651.52
2023-10-13T12:55:08.336Z,97647.39
2023-10-13T12:57:44.397Z,97650.20
2023-10-13T13:00:24.146Z,97647.14
2023-10-13T13:02:53.903Z,97643.74
2023-10-13T13:05:24.217Z,97642.71
2023-10-13T13:07:55.363Z,97644.56
2023-10-13T13:10:36.746Z,97643.69
2023-10-13T13:13:06.540Z,97642.23
2023-10-13T13:15:34.958Z,97639.48
2023-10-13T13:18:11.825Z,97638.67
2023-10-13T13:20:55.873Z,97636.63
2023-10-13T13:23:32.435Z,97633.55
2023-10-13T13:26:00.481Z,97630.96
2023-10-13T13:28:38.991Z,97632.59
2023-10-13T13:31:09.373Z,97631.73
2023-10-13T13:33:39.859Z,97630.25
2023-10-13T13:36:07.976Z,97630.67
2023-10-13T13:38:36.029Z,97630.23
2023-10-13T13:41:05.091Z,97631.02
2023-10-13T13:43:39.573Z,97631.19
2023-10-13T13:46:12.156Z,97629.26
2023-10-13T13:48:42.181Z,97625.98
2023-10-13T13:51:16.916Z,97628.02
2023-10-13T13:53:51.511Z,97622.04
2023-10-13T13:56:20.323Z,97622.41
2023-10-13T13:58:57.370Z,97621.60
2023-10-13T14:01:28.073Z,97621.93
2023-10-13T14:04:04.188Z,97618.70
2023-10-13T14:06:33.888Z,97616.72
2023-10-13T14:09:04.947Z,97619.13
2023-10-13T14:11:39.911Z,97614.99
2023-10-13T14:14:30.098Z,97611.63
2023-10-13T14:17:08.010Z,97612.27
2023-10-13T14:19:41.979Z,97615.63
2023-10-13T14:22:13.686Z,97616.00
2023-10-13T14:24:47.181Z,97611.02
2023-10-13T14:27:19.656Z,97614.19
2023-10-13T14:29:48.503Z,97614.31
2023-10-13T14:32:16.854Z,97615.16
2023-10-13T14:34:47.301Z,97619.90
2023-10-13T14:37:15.383Z,97623.80
2023-10-13T14:39:43.298Z,97623.21
2023-10-13T14:42:11.274Z,97621.10
2023-10-13T14:44:39.378Z,97623.26
2023-10-13T14:47:10.233Z,97621.80
2023-10-13T14:49:38.529Z,97623.02
2023-10-13T14:52:06.717Z,97619.30
2023-10-13T14:54:34.954Z,97618.17
2023-10-13T14:57:04.010Z,97616.42
2023-10-13T14:59:34.585Z,97618.30
2023-10-13T15:02:03.247Z,97619.44
2023-10-13T15:04:34.675Z,97619.00
2023-10-13T15:07:03.712Z,97620.88
2023-10-13T15:09:31.735Z,97622.96
2023-10-13T15:12:00.005Z,97620.77
2023-10-13T15:14:27.967Z,97618.33
2023-10-13T15:17:01.670Z,97615.58
2023-10-13T15:19:31.298Z,97618.18
2023-10-13T15:22:00.788Z,97616.33
2023-10-13T15:24:32.679Z,97613.14
2023-10-13T15:27:09.618Z,97615.03
2023-10-13T15:29:38.443Z,97617.23
2023-10-13T15:32:27.494Z,97619.73
2023-10-13T15:34:57.078Z,97619.23
2023-10-13T15:37:26.887Z,97619.60
2023-10-13T15:39:56.422Z,97620.53
2023-10-13T15:42:24.563Z,97621.32
2023-10-13T15:44:52.957Z,97621.74
2023-10-13T15:49:51.897Z,97631.02
2023-10-13T15:52:20.216Z,97635.23
2023-10-13T15:54:48.625Z,97630.90
2023-10-13T15:57:18.137Z,97627.24
2023-10-13T15:59:47.681Z,97630.48
2023-10-13T16:02:21.073Z,97633.02
2023-10-13T16:04:49.410Z,97634.17
2023-10-13T16:07:19.189Z,97632.91
2023-10-13T16:09:47.784Z,97639.00
2023-10-13T16:12:16.711Z,97638.11
2023-10-13T16:14:44.836Z,97638.75
2023-10-13T16:17:12.747Z,97644.21
2023-10-13T16:19:40.970Z,97642.34
2023-10-13T16:22:11.071Z,97645.33
2023-10-13T16:24:39.316Z,97650.40
2023-10-13T16:27:07.731Z,97650.16
2023-10-13T16:29:35.774Z,97649.56
2023-10-13T16:32:04.038Z,97651.03
2023-10-13T16:34:32.001Z,97653.77
2023-10-13T16:37:00.264Z,97653.98
2023-10-13T16:39:29.608Z,97654.52
2023-10-13T16:41:57.776Z,97654.15
2023-10-13T16:44:28.269Z,97655.76
2023-10-13T16:47:01.837Z,97659.38
2023-10-13T16:49:31.543Z,97660.91
2023-10-13T16:52:01.673Z,97659.56
2023-10-13T16:54:30.328Z,97658.27
2023-10-13T16:56:58.464Z,97654.64
2023-10-13T16:59:27.394Z,97654.90
2023-10-13T17:01:56.264Z,97659.09
2023-10-13T17:04:28.280Z,97660.52
2023-10-13T17:06:56.865Z,97660.11
2023-10-13T17:09:25.670Z,97658.64
2023-10-13T17:11:53.932Z,97658.59
2023-10-13T17:14:22.010Z,97658.73
2023-10-13T17:16:50.279Z,97660.40
2023-10-13T17:19:18.289Z,97660.63
2023-10-13T17:21:48.362Z,97661.35
2023-10-13T17:24:16.820Z,97657.89
2023-10-13T17:26:44.772Z,97659.50
2023-10-13T17:29:12.945Z,97655.97
2023-10-13T17:31:40.895Z,97656.56
2023-10-13T17:34:08.845Z,97655.90
2023-10-13T17:36:39.500Z,97654.77
2023-10-13T17:39:10.183Z,97652.84
2023-10-13T17:41:38.075Z,97648.62
2023-10-13T17:44:09.068Z,97653.53
2023-10-13T17:46:41.100Z,97653.23
2023-10-13T17:49:09.466Z,97655.78
2023-10-13T17:51:37.588Z,97658.91
2023-10-13T17:54:07.024Z,97661.48
2023-10-13T17:56:34.935Z,97660.04
2023-10-13T17:59:03.006Z,97660.55
2023-10-13T18:01:33.349Z,97660.91
2023-10-13T18:04:05.855Z,97662.59
2023-10-13T18:06:38.206Z,97660.31
2023-10-13T18:09:12.217Z,97657.20
2023-10-13T18:11:43.957Z,97655.31
2023-10-13T18:14:13.074Z,97652.85
2023-10-13T18:16:42.668Z,97659.57
2023-10-13T18:19:11.090Z,97664.14
2023-10-13T18:21:39.100Z,97664.99
2023-10-13T18:24:09.513Z,97660.59
2023-10-13T18:26:37.748Z,97652.98
2023-10-13T18:29:05.742Z,97652.34
2023-10-13T18:31:34.829Z,97651.42
2023-10-13T18:34:03.727Z,97656.27
2023-10-13T18:36:32.834Z,97659.73
2023-10-13T18:39:03.116Z,97660.02
2023-10-13T18:41:34.013Z,97660.93
2023-10-13T18:44:02.086Z,97662.70
2023-10-13T18:46:31.317Z,97663.70
2023-10-13T18:48:59.861Z,97666.02
2023-10-13T18:51:28.098Z,97665.73
2023-10-13T18:53:58.107Z,97663.59
2023-10-13T18:56:26.348Z,97666.77
2023-10-13T18:58:57.817Z,97667.45
2023-10-13T19:01:30.966Z,97667.59
2023-10-13T19:04:01.280Z,97666.29
2023-10-13T19:06:34.918Z,97668.46
2023-10-13T19:09:06.873Z,97670.94
2023-10-13T19:11:37.945Z,97669.20
2023-10-13T19:14:11.392Z,97667.90
2023-10-13T19:16:43.146Z,97673.88
2023-10-13T19:19:11.246Z,97674.52
2023-10-13T19:21:39.316Z,97672.20
2023-10-13T19:24:08.262Z,97675.92
2023-10-13T19:26:38.393Z,97671.96
2023-10-13T19:29:07.016Z,97669.77
2023-10-13T19:31:36.177Z,97669.87
2023-10-13T19:34:06.406Z,97669.67
2023-10-13T19:36:35.704Z,97670.27
2023-10-13T19:39:08.997Z,97673.16
2023-10-13T19:41:38.170Z,97671.77
2023-10-13T19:44:09.282Z,97672.36
2023-10-13T19:46:37.408Z,97673.46
2023-10-13T19:49:06.406Z,97675.77
2023-10-13T19:51:35.431Z,97678.45
2023-10-13T19:54:04.423Z,97678.16
2023-10-13T19:56:33.705Z,97677.58
2023-10-13T19:59:02.657Z,97679.98
2023-10-13T20:01:35.007Z,97679.82
2023-10-13T20:04:08.482Z,97681.98
2023-10-13T20:06:37.015Z,97684.46
2023-10-13T20:09:10.288Z,97689.03
2023-10-13T20:11:39.395Z,97693.55
2023-10-13T20:14:10.879Z,97694.52
2023-10-13T20:16:39.065Z,97687.59
2023-10-13T20:19:07.232Z,97686.39
2023-10-13T20:21:37.021Z,97684.35
2023-10-13T20:24:05.861Z,97683.38
2023-10-13T20:26:44.112Z,97678.73
2023-10-13T20:29:17.319Z,97672.71
2023-10-13T20:31:49.143Z,97671.23
2023-10-13T20:34:24.388Z,97669.55
2023-10-13T20:36:56.072Z,97668.61
2023-10-13T20:39:42.822Z,97669.98
2023-10-13T20:42:10.914Z,97668.41
2023-10-13T20:44:39.368Z,97665.01
2023-10-13T20:47:08.189Z,97660.54
2023-10-13T20:49:36.348Z,97659.44
2023-10-13T20:52:06.432Z,97660.22
2023-10-13T20:54:34.890Z,97659.02
2023-10-13T20:57:09.130Z,97656.69
2023-10-13T20:59:40.814Z,97655.02
2023-10-13T21:02:08.953Z,97649.13
2023-10-13T21:04:36.979Z,97647.95
2023-10-13T21:07:06.006Z,97645.66
2023-10-13T21:09:34.305Z,97646.85
2023-10-13T21:12:06.458Z,97644.48
2023-10-13T21:14:37.465Z,97646.33
2023-10-13T21:17:05.917Z,97646.54
2023-10-13T21:19:37.613Z,97648.17
2023-10-13T21:22:09.360Z,97647.04
2023-10-13T21:24:38.090Z,97643.77
2023-10-13T21:27:06.181Z,97641.23
2023-10-13T21:29:34.421Z,97639.17
2023-10-13T21:32:02.958Z,97637.95
2023-10-13T21:34:31.907Z,97639.73
2023-10-13T21:37:01.077Z,97640.61
2023-10-13T21:39:45.392Z,97641.65
2023-10-13T21:42:16.384Z,97641.41
2023-10-13T21:44:44.476Z,97643.66
2023-10-13T21:47:12.962Z,97638.99
2023-10-13T21:49:42.155Z,97636.80
2023-10-13T21:52:10.465Z,97637.98
2023-10-13T21:54:39.104Z,97633.23
2023-10-13T21:57:07.016Z,97628.58
2023-10-13T21:59:34.854Z,97629.10
2023-10-13T22:02:03.027Z,97627.47
2023-10-13T22:04:32.808Z,97625.83
2023-10-13T22:07:00.898Z,97625.05
2023-10-13T22:09:28.937Z,97619.37
2023-10-13T22:11:57.058Z,97613.11
2023-10-13T22:14:25.091Z,97608.84
2023-10-13T22:16:53.126Z,97612.56
2023-10-13T22:19:21.293Z,97614.52
2023-10-13T22:21:53.253Z,97611.93
2023-10-13T22:24:22.210Z,97605.59
2023-10-13T22:26:50.331Z,97605.39
2023-10-13T22:29:18.387Z,97605.02
2023-10-13T22:31:46.587Z,97604.02
2023-10-13T22:34:19.305Z,97600.39
2023-10-13T22:37:02.798Z,97600.92
2023-10-13T22:39:34.852Z,97597.36
2023-10-13T22:42:03.749Z,97599.73
2023-10-13T22:44:33.897Z,97601.90
2023-10-13T22:47:01.937Z,97601.83
2023-10-13T22:49:33.538Z,97596.38
2023-10-13T22:52:02.016Z,97597.58
2023-10-13T22:54:30.821Z,97597.98
2023-10-13T22:56:59.026Z,97602.04
2023-10-13T22:59:28.574Z,97605.64
2023-10-13T23:02:00.302Z,97608.30
2023-10-13T23:04:29.042Z,97609.29
2023-10-13T23:06:59.661Z,97609.41
2023-10-13T23:09:28.005Z,97609.56
2023-10-13T23:11:57.679Z,97611.55
2023-10-13T23:14:26.838Z,97613.73
2023-10-13T23:16:55.048Z,97611.67
2023-10-13T23:19:26.127Z,97609.67
2023-10-13T23:21:55.684Z,97610.64
2023-10-13T23:24:24.498Z,97608.55
2023-10-13T23:26:52.413Z,97609.98
2023-10-13T23:29:20.360Z,97607.98
2023-10-13T23:31:48.964Z,97611.30
2023-10-13T23:34:18.124Z,97607.54
2023-10-13T23:36:46.285Z,97601.64
2023-10-13T23:39:18.196Z,97599.52
2023-10-13T23:41:46.118Z,97601.02
2023-10-13T23:44:16.787Z,97598.83
2023-10-13T23:46:44.996Z,97594.77
2023-10-13T23:49:20.808Z,97592.45
2023-10-13T23:51:55.024Z,97587.41
2023-10-13T23:54:23.600Z,97584.38
2023-10-13T23:56:53.434Z,97582.19
2023-10-13T23:59:30.452Z,97573.76
